sensor_id;sensor_type;location;lat;lon;timestamp;P1;durP1;ratioP1;P2;durP2;ratioP2
75246;SDS011;63844;50.042;19.224;2023-09-19T00:01:18;3.70;;;3.30;;
75246;SDS011;63844;50.042;19.224;2023-09-19T00:02:57;5.10;;;2.70;;
75246;SDS011;63844;50.042;19.224;2023-09-19T00:04:35;5.00;;;3.20;;
75246;SDS011;63844;50.042;19.224;2023-09-19T00:06:15;4.30;;;3.70;;
75246;SDS011;63844;50.042;19.224;2023-09-19T00:07:52;3.60;;;3.10;;
75246;SDS011;63844;50.042;19.224;2023-09-19T00:09:34;4.40;;;3.50;;
75246;SDS011;63844;50.042;19.224;2023-09-19T00:11:13;3.60;;;2.90;;
75246;SDS011;63844;50.042;19.224;2023-09-19T00:12:51;3.40;;;3.00;;
75246;SDS011;63844;50.042;19.224;2023-09-19T00:14:29;3.90;;;3.10;;
75246;SDS011;63844;50.042;19.224;2023-09-19T00:16:11;3.40;;;2.90;;
75246;SDS011;63844;50.042;19.224;2023-09-19T00:17:48;3.40;;;2.90;;
75246;SDS011;63844;50.042;19.224;2023-09-19T00:19:24;3.40;;;2.90;;
75246;SDS011;63844;50.042;19.224;2023-09-19T00:21:01;3.50;;;2.90;;
75246;SDS011;63844;50.042;19.224;2023-09-19T00:22:39;3.20;;;2.90;;
75246;SDS011;63844;50.042;19.224;2023-09-19T00:24:16;3.10;;;2.60;;
75246;SDS011;63844;50.042;19.224;2023-09-19T00:25:54;3.80;;;3.10;;
75246;SDS011;63844;50.042;19.224;2023-09-19T00:27:35;4.30;;;3.20;;
75246;SDS011;63844;50.042;19.224;2023-09-19T00:29:14;3.40;;;2.90;;
75246;SDS011;63844;50.042;19.224;2023-09-19T00:30:52;4.70;;;2.70;;
75246;SDS011;63844;50.042;19.224;2023-09-19T00:32:30;4.90;;;3.60;;
75246;SDS011;63844;50.042;19.224;2023-09-19T00:34:07;4.70;;;2.60;;
75246;SDS011;63844;50.042;19.224;2023-09-19T00:35:47;3.60;;;3.20;;
75246;SDS011;63844;50.042;19.224;2023-09-19T00:37:27;3.50;;;2.70;;
75246;SDS011;63844;50.042;19.224;2023-09-19T00:39:03;2.80;;;2.50;;
75246;SDS011;63844;50.042;19.224;2023-09-19T00:40:44;4.10;;;3.20;;
75246;SDS011;63844;50.042;19.224;2023-09-19T00:42:21;3.40;;;2.90;;
75246;SDS011;63844;50.042;19.224;2023-09-19T00:43:58;3.30;;;2.70;;
75246;SDS011;63844;50.042;19.224;2023-09-19T00:45:37;3.10;;;2.80;;
75246;SDS011;63844;50.042;19.224;2023-09-19T00:47:15;3.60;;;3.00;;
75246;SDS011;63844;50.042;19.224;2023-09-19T00:48:53;3.50;;;2.70;;
75246;SDS011;63844;50.042;19.224;2023-09-19T00:50:30;3.10;;;2.70;;
75246;SDS011;63844;50.042;19.224;2023-09-19T00:52:08;3.50;;;2.60;;
75246;SDS011;63844;50.042;19.224;2023-09-19T00:53:46;3.10;;;2.60;;
75246;SDS011;63844;50.042;19.224;2023-09-19T00:55:23;4.00;;;2.70;;
75246;SDS011;63844;50.042;19.224;2023-09-19T00:57:00;4.80;;;3.20;;
75246;SDS011;63844;50.042;19.224;2023-09-19T00:58:37;3.20;;;2.70;;
75246;SDS011;63844;50.042;19.224;2023-09-19T01:00:14;3.80;;;2.80;;
75246;SDS011;63844;50.042;19.224;2023-09-19T01:01:52;2.90;;;2.70;;
75246;SDS011;63844;50.042;19.224;2023-09-19T01:03:30;4.50;;;3.30;;
75246;SDS011;63844;50.042;19.224;2023-09-19T01:05:07;3.60;;;2.50;;
75246;SDS011;63844;50.042;19.224;2023-09-19T01:06:43;3.10;;;2.70;;
75246;SDS011;63844;50.042;19.224;2023-09-19T01:08:21;3.90;;;3.50;;
75246;SDS011;63844;50.042;19.224;2023-09-19T01:09:58;3.30;;;2.50;;
75246;SDS011;63844;50.042;19.224;2023-09-19T01:11:43;3.20;;;2.70;;
75246;SDS011;63844;50.042;19.224;2023-09-19T01:13:29;3.30;;;3.00;;
75246;SDS011;63844;50.042;19.224;2023-09-19T01:15:28;3.30;;;2.60;;
75246;SDS011;63844;50.042;19.224;2023-09-19T01:17:36;3.10;;;2.80;;
75246;SDS011;63844;50.042;19.224;2023-09-19T01:19:38;3.30;;;2.80;;
75246;SDS011;63844;50.042;19.224;2023-09-19T01:21:21;3.50;;;2.60;;
75246;SDS011;63844;50.042;19.224;2023-09-19T01:23:11;15.80;;;4.30;;
75246;SDS011;63844;50.042;19.224;2023-09-19T01:27:24;4.10;;;2.80;;
75246;SDS011;63844;50.042;19.224;2023-09-19T01:30:58;2.70;;;2.30;;
75246;SDS011;63844;50.042;19.224;2023-09-19T01:32:39;3.40;;;2.20;;
75246;SDS011;63844;50.042;19.224;2023-09-19T01:34:17;2.80;;;2.50;;
75246;SDS011;63844;50.042;19.224;2023-09-19T01:35:54;2.70;;;2.20;;
75246;SDS011;63844;50.042;19.224;2023-09-19T01:37:34;3.10;;;2.50;;
75246;SDS011;63844;50.042;19.224;2023-09-19T01:39:11;3.50;;;2.50;;
75246;SDS011;63844;50.042;19.224;2023-09-19T01:40:54;3.50;;;2.50;;
75246;SDS011;63844;50.042;19.224;2023-09-19T01:42:42;2.50;;;2.30;;
75246;SDS011;63844;50.042;19.224;2023-09-19T01:44:44;2.80;;;2.60;;
75246;SDS011;63844;50.042;19.224;2023-09-19T01:46:25;2.90;;;2.30;;
75246;SDS011;63844;50.042;19.224;2023-09-19T01:48:16;3.00;;;2.70;;
75246;SDS011;63844;50.042;19.224;2023-09-19T01:50:17;2.70;;;2.40;;
75246;SDS011;63844;50.042;19.224;2023-09-19T01:52:17;3.40;;;2.50;;
75246;SDS011;63844;50.042;19.224;2023-09-19T01:54:09;3.30;;;2.70;;
75246;SDS011;63844;50.042;19.224;2023-09-19T01:55:48;2.50;;;2.10;;
75246;SDS011;63844;50.042;19.224;2023-09-19T01:57:28;2.40;;;2.00;;
75246;SDS011;63844;50.042;19.224;2023-09-19T01:59:10;2.90;;;2.20;;
75246;SDS011;63844;50.042;19.224;2023-09-19T02:00:49;3.10;;;2.50;;
75246;SDS011;63844;50.042;19.224;2023-09-19T02:02:28;2.70;;;2.40;;
75246;SDS011;63844;50.042;19.224;2023-09-19T02:04:05;2.80;;;2.50;;
75246;SDS011;63844;50.042;19.224;2023-09-19T02:05:50;3.20;;;2.30;;
75246;SDS011;63844;50.042;19.224;2023-09-19T02:07:27;2.90;;;2.30;;
75246;SDS011;63844;50.042;19.224;2023-09-19T02:09:05;2.60;;;2.40;;
75246;SDS011;63844;50.042;19.224;2023-09-19T02:10:41;2.50;;;2.00;;
75246;SDS011;63844;50.042;19.224;2023-09-19T02:12:18;2.80;;;2.40;;
75246;SDS011;63844;50.042;19.224;2023-09-19T02:13:54;3.80;;;2.50;;
75246;SDS011;63844;50.042;19.224;2023-09-19T02:15:31;2.90;;;2.40;;
75246;SDS011;63844;50.042;19.224;2023-09-19T02:17:10;2.60;;;2.10;;
75246;SDS011;63844;50.042;19.224;2023-09-19T02:18:48;3.30;;;2.70;;
75246;SDS011;63844;50.042;19.224;2023-09-19T02:20:25;2.70;;;2.20;;
75246;SDS011;63844;50.042;19.224;2023-09-19T02:22:02;2.70;;;2.20;;
75246;SDS011;63844;50.042;19.224;2023-09-19T02:23:44;2.40;;;2.20;;
75246;SDS011;63844;50.042;19.224;2023-09-19T02:25:22;2.00;;;1.80;;
75246;SDS011;63844;50.042;19.224;2023-09-19T02:26:58;2.50;;;2.20;;
75246;SDS011;63844;50.042;19.224;2023-09-19T02:28:40;3.00;;;2.10;;
75246;SDS011;63844;50.042;19.224;2023-09-19T02:30:16;2.90;;;2.00;;
75246;SDS011;63844;50.042;19.224;2023-09-19T02:31:54;3.30;;;2.30;;
75246;SDS011;63844;50.042;19.224;2023-09-19T02:33:32;2.70;;;2.30;;
75246;SDS011;63844;50.042;19.224;2023-09-19T02:35:08;3.00;;;2.20;;
75246;SDS011;63844;50.042;19.224;2023-09-19T02:36:47;3.10;;;1.60;;
75246;SDS011;63844;50.042;19.224;2023-09-19T02:38:23;2.50;;;2.20;;
75246;SDS011;63844;50.042;19.224;2023-09-19T02:40:02;2.40;;;2.00;;
75246;SDS011;63844;50.042;19.224;2023-09-19T02:41:38;2.80;;;2.20;;
75246;SDS011;63844;50.042;19.224;2023-09-19T02:43:15;2.30;;;2.10;;
75246;SDS011;63844;50.042;19.224;2023-09-19T02:44:51;2.30;;;2.10;;
75246;SDS011;63844;50.042;19.224;2023-09-19T02:46:27;3.00;;;2.10;;
75246;SDS011;63844;50.042;19.224;2023-09-19T02:48:04;2.20;;;2.00;;
75246;SDS011;63844;50.042;19.224;2023-09-19T02:49:40;2.70;;;2.00;;
75246;SDS011;63844;50.042;19.224;2023-09-19T02:51:18;2.10;;;1.80;;
75246;SDS011;63844;50.042;19.224;2023-09-19T02:52:55;7.10;;;2.20;;
75246;SDS011;63844;50.042;19.224;2023-09-19T02:54:31;2.80;;;2.20;;
75246;SDS011;63844;50.042;19.224;2023-09-19T02:56:08;2.70;;;2.50;;
75246;SDS011;63844;50.042;19.224;2023-09-19T02:57:52;2.70;;;1.90;;
75246;SDS011;63844;50.042;19.224;2023-09-19T02:59:32;2.20;;;2.00;;
75246;SDS011;63844;50.042;19.224;2023-09-19T03:01:09;2.20;;;2.00;;
75246;SDS011;63844;50.042;19.224;2023-09-19T03:02:51;2.60;;;2.30;;
75246;SDS011;63844;50.042;19.224;2023-09-19T03:04:30;2.30;;;2.00;;
75246;SDS011;63844;50.042;19.224;2023-09-19T03:06:07;2.70;;;2.40;;
75246;SDS011;63844;50.042;19.224;2023-09-19T03:07:45;2.40;;;2.20;;
75246;SDS011;63844;50.042;19.224;2023-09-19T03:09:27;2.30;;;2.10;;
75246;SDS011;63844;50.042;19.224;2023-09-19T03:11:04;3.60;;;2.30;;
75246;SDS011;63844;50.042;19.224;2023-09-19T03:12:41;4.20;;;2.40;;
75246;SDS011;63844;50.042;19.224;2023-09-19T03:14:18;3.30;;;2.20;;
75246;SDS011;63844;50.042;19.224;2023-09-19T03:15:56;2.70;;;2.10;;
75246;SDS011;63844;50.042;19.224;2023-09-19T03:17:34;2.20;;;1.90;;
75246;SDS011;63844;50.042;19.224;2023-09-19T03:19:11;2.00;;;1.80;;
75246;SDS011;63844;50.042;19.224;2023-09-19T03:20:54;3.20;;;2.30;;
75246;SDS011;63844;50.042;19.224;2023-09-19T03:22:31;3.20;;;2.60;;
75246;SDS011;63844;50.042;19.224;2023-09-19T03:24:09;2.50;;;2.30;;
75246;SDS011;63844;50.042;19.224;2023-09-19T03:25:45;2.30;;;1.80;;
75246;SDS011;63844;50.042;19.224;2023-09-19T03:27:22;2.30;;;2.00;;
75246;SDS011;63844;50.042;19.224;2023-09-19T03:28:58;2.50;;;1.90;;
75246;SDS011;63844;50.042;19.224;2023-09-19T03:30:34;2.20;;;2.00;;
75246;SDS011;63844;50.042;19.224;2023-09-19T03:32:11;2.10;;;1.90;;
75246;SDS011;63844;50.042;19.224;2023-09-19T03:33:47;2.00;;;1.80;;
75246;SDS011;63844;50.042;19.224;2023-09-19T03:35:24;2.30;;;1.90;;
75246;SDS011;63844;50.042;19.224;2023-09-19T03:37:00;2.30;;;1.90;;
75246;SDS011;63844;50.042;19.224;2023-09-19T03:38:36;2.40;;;2.10;;
75246;SDS011;63844;50.042;19.224;2023-09-19T03:40:13;2.40;;;2.20;;
75246;SDS011;63844;50.042;19.224;2023-09-19T03:41:50;2.20;;;2.00;;
75246;SDS011;63844;50.042;19.224;2023-09-19T03:43:26;3.00;;;1.90;;
75246;SDS011;63844;50.042;19.224;2023-09-19T03:45:03;2.60;;;2.40;;
75246;SDS011;63844;50.042;19.224;2023-09-19T03:46:39;2.60;;;2.30;;
75246;SDS011;63844;50.042;19.224;2023-09-19T03:48:16;2.20;;;2.00;;
75246;SDS011;63844;50.042;19.224;2023-09-19T03:49:52;2.40;;;1.80;;
75246;SDS011;63844;50.042;19.224;2023-09-19T03:51:29;2.50;;;2.10;;
75246;SDS011;63844;50.042;19.224;2023-09-19T03:53:05;2.50;;;2.30;;
75246;SDS011;63844;50.042;19.224;2023-09-19T03:54:43;1.90;;;1.80;;
75246;SDS011;63844;50.042;19.224;2023-09-19T03:56:20;2.00;;;1.70;;
75246;SDS011;63844;50.042;19.224;2023-09-19T03:57:56;2.50;;;2.20;;
75246;SDS011;63844;50.042;19.224;2023-09-19T03:59:33;2.40;;;2.20;;
75246;SDS011;63844;50.042;19.224;2023-09-19T04:01:11;1.70;;;1.50;;
75246;SDS011;63844;50.042;19.224;2023-09-19T04:02:51;2.70;;;1.90;;
75246;SDS011;63844;50.042;19.224;2023-09-19T04:04:28;1.90;;;1.70;;
75246;SDS011;63844;50.042;19.224;2023-09-19T04:06:05;2.10;;;1.70;;
75246;SDS011;63844;50.042;19.224;2023-09-19T04:07:42;2.20;;;1.70;;
75246;SDS011;63844;50.042;19.224;2023-09-19T04:09:18;2.30;;;2.10;;
75246;SDS011;63844;50.042;19.224;2023-09-19T04:10:54;2.70;;;2.50;;
75246;SDS011;63844;50.042;19.224;2023-09-19T04:12:31;2.60;;;2.20;;
75246;SDS011;63844;50.042;19.224;2023-09-19T04:14:08;2.20;;;2.00;;
75246;SDS011;63844;50.042;19.224;2023-09-19T04:15:44;2.60;;;2.20;;
75246;SDS011;63844;50.042;19.224;2023-09-19T04:17:22;2.50;;;2.30;;
75246;SDS011;63844;50.042;19.224;2023-09-19T04:18:59;2.00;;;1.50;;
75246;SDS011;63844;50.042;19.224;2023-09-19T04:20:35;2.20;;;2.00;;
75246;SDS011;63844;50.042;19.224;2023-09-19T04:22:12;2.60;;;2.40;;
75246;SDS011;63844;50.042;19.224;2023-09-19T04:23:49;2.20;;;1.90;;
75246;SDS011;63844;50.042;19.224;2023-09-19T04:25:25;3.00;;;2.70;;
75246;SDS011;63844;50.042;19.224;2023-09-19T04:27:02;2.80;;;1.60;;
75246;SDS011;63844;50.042;19.224;2023-09-19T04:28:39;2.20;;;2.00;;
75246;SDS011;63844;50.042;19.224;2023-09-19T04:30:16;2.00;;;1.80;;
75246;SDS011;63844;50.042;19.224;2023-09-19T04:31:53;2.00;;;1.80;;
75246;SDS011;63844;50.042;19.224;2023-09-19T04:33:29;2.50;;;2.10;;
75246;SDS011;63844;50.042;19.224;2023-09-19T04:35:08;2.10;;;1.90;;
75246;SDS011;63844;50.042;19.224;2023-09-19T04:36:46;2.40;;;1.70;;
75246;SDS011;63844;50.042;19.224;2023-09-19T04:38:23;2.00;;;1.80;;
75246;SDS011;63844;50.042;19.224;2023-09-19T04:39:59;2.10;;;1.80;;
75246;SDS011;63844;50.042;19.224;2023-09-19T04:41:36;2.10;;;1.90;;
75246;SDS011;63844;50.042;19.224;2023-09-19T04:43:15;2.60;;;2.20;;
75246;SDS011;63844;50.042;19.224;2023-09-19T04:44:54;2.70;;;1.70;;
75246;SDS011;63844;50.042;19.224;2023-09-19T04:46:30;2.20;;;1.90;;
75246;SDS011;63844;50.042;19.224;2023-09-19T04:48:07;2.30;;;2.00;;
75246;SDS011;63844;50.042;19.224;2023-09-19T04:49:44;1.90;;;1.80;;
75246;SDS011;63844;50.042;19.224;2023-09-19T04:51:20;2.20;;;2.00;;
75246;SDS011;63844;50.042;19.224;2023-09-19T04:52:57;3.20;;;2.30;;
75246;SDS011;63844;50.042;19.224;2023-09-19T04:54:33;1.90;;;1.70;;
75246;SDS011;63844;50.042;19.224;2023-09-19T04:56:10;2.10;;;1.90;;
75246;SDS011;63844;50.042;19.224;2023-09-19T04:57:47;1.90;;;1.70;;
75246;SDS011;63844;50.042;19.224;2023-09-19T04:59:25;1.90;;;1.60;;
75246;SDS011;63844;50.042;19.224;2023-09-19T05:01:01;1.70;;;1.50;;
75246;SDS011;63844;50.042;19.224;2023-09-19T05:02:38;2.00;;;1.80;;
75246;SDS011;63844;50.042;19.224;2023-09-19T05:04:16;2.30;;;1.50;;
75246;SDS011;63844;50.042;19.224;2023-09-19T05:05:52;2.20;;;1.60;;
75246;SDS011;63844;50.042;19.224;2023-09-19T05:07:29;2.20;;;1.50;;
75246;SDS011;63844;50.042;19.224;2023-09-19T05:09:05;1.90;;;1.70;;
75246;SDS011;63844;50.042;19.224;2023-09-19T05:10:41;2.00;;;1.80;;
75246;SDS011;63844;50.042;19.224;2023-09-19T05:12:18;4.10;;;3.60;;
75246;SDS011;63844;50.042;19.224;2023-09-19T05:13:55;5.80;;;5.10;;
75246;SDS011;63844;50.042;19.224;2023-09-19T05:15:32;5.60;;;4.70;;
75246;SDS011;63844;50.042;19.224;2023-09-19T05:17:08;6.20;;;5.00;;
75246;SDS011;63844;50.042;19.224;2023-09-19T05:18:44;4.80;;;4.20;;
75246;SDS011;63844;50.042;19.224;2023-09-19T05:20:21;4.90;;;4.30;;
75246;SDS011;63844;50.042;19.224;2023-09-19T05:22:05;8.20;;;5.40;;
75246;SDS011;63844;50.042;19.224;2023-09-19T05:23:43;6.20;;;5.50;;
75246;SDS011;63844;50.042;19.224;2023-09-19T05:25:19;10.70;;;5.70;;
75246;SDS011;63844;50.042;19.224;2023-09-19T05:26:56;9.30;;;5.80;;
75246;SDS011;63844;50.042;19.224;2023-09-19T05:28:33;9.00;;;5.50;;
75246;SDS011;63844;50.042;19.224;2023-09-19T05:30:11;7.00;;;6.30;;
75246;SDS011;63844;50.042;19.224;2023-09-19T05:31:50;6.60;;;5.50;;
75246;SDS011;63844;50.042;19.224;2023-09-19T05:33:27;8.70;;;7.20;;
75246;SDS011;63844;50.042;19.224;2023-09-19T05:35:03;8.20;;;6.00;;
75246;SDS011;63844;50.042;19.224;2023-09-19T05:36:44;11.10;;;6.60;;
75246;SDS011;63844;50.042;19.224;2023-09-19T05:38:20;9.70;;;7.00;;
75246;SDS011;63844;50.042;19.224;2023-09-19T05:39:57;8.30;;;6.50;;
75246;SDS011;63844;50.042;19.224;2023-09-19T05:41:33;8.70;;;6.10;;
75246;SDS011;63844;50.042;19.224;2023-09-19T05:43:11;9.30;;;6.20;;
75246;SDS011;63844;50.042;19.224;2023-09-19T05:44:47;11.90;;;6.90;;
75246;SDS011;63844;50.042;19.224;2023-09-19T05:46:23;9.20;;;7.20;;
75246;SDS011;63844;50.042;19.224;2023-09-19T05:48:13;10.60;;;7.70;;
75246;SDS011;63844;50.042;19.224;2023-09-19T05:49:50;8.90;;;7.30;;
75246;SDS011;63844;50.042;19.224;2023-09-19T05:51:27;9.70;;;7.70;;
75246;SDS011;63844;50.042;19.224;2023-09-19T05:53:04;7.40;;;6.70;;
75246;SDS011;63844;50.042;19.224;2023-09-19T05:54:41;8.60;;;6.60;;
75246;SDS011;63844;50.042;19.224;2023-09-19T05:56:18;9.90;;;7.10;;
75246;SDS011;63844;50.042;19.224;2023-09-19T05:57:55;8.10;;;6.90;;
75246;SDS011;63844;50.042;19.224;2023-09-19T05:59:31;7.90;;;6.60;;
75246;SDS011;63844;50.042;19.224;2023-09-19T06:01:09;7.60;;;6.80;;
75246;SDS011;63844;50.042;19.224;2023-09-19T06:02:48;9.30;;;6.70;;
75246;SDS011;63844;50.042;19.224;2023-09-19T06:04:26;8.10;;;6.00;;
75246;SDS011;63844;50.042;19.224;2023-09-19T06:06:02;10.60;;;6.50;;
75246;SDS011;63844;50.042;19.224;2023-09-19T06:07:40;9.30;;;7.20;;
75246;SDS011;63844;50.042;19.224;2023-09-19T06:09:16;8.90;;;7.30;;
75246;SDS011;63844;50.042;19.224;2023-09-19T06:10:53;8.10;;;6.80;;
75246;SDS011;63844;50.042;19.224;2023-09-19T06:12:30;9.60;;;7.20;;
75246;SDS011;63844;50.042;19.224;2023-09-19T06:14:06;9.00;;;6.90;;
75246;SDS011;63844;50.042;19.224;2023-09-19T06:15:43;8.30;;;7.30;;
75246;SDS011;63844;50.042;19.224;2023-09-19T06:17:19;9.70;;;7.30;;
75246;SDS011;63844;50.042;19.224;2023-09-19T06:18:58;10.10;;;7.00;;
75246;SDS011;63844;50.042;19.224;2023-09-19T06:20:36;8.00;;;7.00;;
75246;SDS011;63844;50.042;19.224;2023-09-19T06:22:14;9.50;;;6.60;;
75246;SDS011;63844;50.042;19.224;2023-09-19T06:23:54;9.10;;;7.60;;
75246;SDS011;63844;50.042;19.224;2023-09-19T06:25:30;9.50;;;7.80;;
75246;SDS011;63844;50.042;19.224;2023-09-19T06:27:07;9.70;;;7.40;;
75246;SDS011;63844;50.042;19.224;2023-09-19T06:28:45;8.50;;;7.30;;
75246;SDS011;63844;50.042;19.224;2023-09-19T06:30:22;11.10;;;7.30;;
75246;SDS011;63844;50.042;19.224;2023-09-19T06:32:00;9.50;;;7.50;;
75246;SDS011;63844;50.042;19.224;2023-09-19T06:33:37;9.80;;;7.50;;
75246;SDS011;63844;50.042;19.224;2023-09-19T06:35:16;10.20;;;8.30;;
75246;SDS011;63844;50.042;19.224;2023-09-19T06:36:53;9.30;;;8.10;;
75246;SDS011;63844;50.042;19.224;2023-09-19T06:38:31;9.90;;;7.90;;
75246;SDS011;63844;50.042;19.224;2023-09-19T06:40:11;9.40;;;8.00;;
75246;SDS011;63844;50.042;19.224;2023-09-19T06:41:50;11.60;;;8.70;;
75246;SDS011;63844;50.042;19.224;2023-09-19T06:43:29;11.00;;;8.10;;
75246;SDS011;63844;50.042;19.224;2023-09-19T06:45:07;9.60;;;7.70;;
75246;SDS011;63844;50.042;19.224;2023-09-19T06:46:43;9.50;;;7.10;;
75246;SDS011;63844;50.042;19.224;2023-09-19T06:48:22;8.80;;;7.80;;
75246;SDS011;63844;50.042;19.224;2023-09-19T06:50:01;11.00;;;7.60;;
75246;SDS011;63844;50.042;19.224;2023-09-19T06:51:38;7.80;;;6.40;;
75246;SDS011;63844;50.042;19.224;2023-09-19T06:53:14;9.10;;;7.30;;
75246;SDS011;63844;50.042;19.224;2023-09-19T06:54:51;8.40;;;6.80;;
75246;SDS011;63844;50.042;19.224;2023-09-19T06:56:28;8.10;;;6.70;;
75246;SDS011;63844;50.042;19.224;2023-09-19T06:58:04;9.40;;;7.10;;
75246;SDS011;63844;50.042;19.224;2023-09-19T06:59:42;8.60;;;6.30;;
75246;SDS011;63844;50.042;19.224;2023-09-19T07:01:18;7.70;;;6.10;;
75246;SDS011;63844;50.042;19.224;2023-09-19T07:02:58;7.90;;;6.20;;
75246;SDS011;63844;50.042;19.224;2023-09-19T07:04:40;7.70;;;5.80;;
75246;SDS011;63844;50.042;19.224;2023-09-19T07:06:17;12.90;;;7.20;;
75246;SDS011;63844;50.042;19.224;2023-09-19T07:07:53;9.50;;;6.50;;
75246;SDS011;63844;50.042;19.224;2023-09-19T07:09:34;9.70;;;6.80;;
75246;SDS011;63844;50.042;19.224;2023-09-19T07:11:11;9.60;;;6.50;;
75246;SDS011;63844;50.042;19.224;2023-09-19T07:12:48;8.90;;;6.10;;
75246;SDS011;63844;50.042;19.224;2023-09-19T07:14:30;8.20;;;5.70;;
75246;SDS011;63844;50.042;19.224;2023-09-19T07:16:07;8.30;;;6.30;;
75246;SDS011;63844;50.042;19.224;2023-09-19T07:17:46;8.80;;;6.20;;
75246;SDS011;63844;50.042;19.224;2023-09-19T07:19:22;10.80;;;5.60;;
75246;SDS011;63844;50.042;19.224;2023-09-19T07:20:59;7.30;;;5.20;;
75246;SDS011;63844;50.042;19.224;2023-09-19T07:22:40;9.50;;;5.40;;
75246;SDS011;63844;50.042;19.224;2023-09-19T07:24:17;7.20;;;6.10;;
75246;SDS011;63844;50.042;19.224;2023-09-19T07:25:56;7.70;;;5.70;;
75246;SDS011;63844;50.042;19.224;2023-09-19T07:27:33;8.70;;;6.20;;
75246;SDS011;63844;50.042;19.224;2023-09-19T07:29:09;8.60;;;5.70;;
75246;SDS011;63844;50.042;19.224;2023-09-19T07:30:46;7.00;;;5.40;;
75246;SDS011;63844;50.042;19.224;2023-09-19T07:32:22;6.80;;;5.40;;
75246;SDS011;63844;50.042;19.224;2023-09-19T07:33:59;6.10;;;4.60;;
75246;SDS011;63844;50.042;19.224;2023-09-19T07:35:35;7.10;;;4.60;;
75246;SDS011;63844;50.042;19.224;2023-09-19T07:37:12;5.60;;;4.80;;
75246;SDS011;63844;50.042;19.224;2023-09-19T07:38:50;7.20;;;4.30;;
75246;SDS011;63844;50.042;19.224;2023-09-19T07:40:27;6.40;;;4.90;;
75246;SDS011;63844;50.042;19.224;2023-09-19T07:42:04;4.30;;;3.40;;
75246;SDS011;63844;50.042;19.224;2023-09-19T07:43:43;11.60;;;4.40;;
75246;SDS011;63844;50.042;19.224;2023-09-19T07:45:20;8.30;;;4.40;;
75246;SDS011;63844;50.042;19.224;2023-09-19T07:46:57;6.30;;;3.70;;
75246;SDS011;63844;50.042;19.224;2023-09-19T07:48:33;7.30;;;4.20;;
75246;SDS011;63844;50.042;19.224;2023-09-19T07:50:12;8.80;;;3.60;;
75246;SDS011;63844;50.042;19.224;2023-09-19T07:51:52;5.00;;;3.60;;
75246;SDS011;63844;50.042;19.224;2023-09-19T07:53:30;5.50;;;3.50;;
75246;SDS011;63844;50.042;19.224;2023-09-19T07:55:06;6.20;;;3.90;;
75246;SDS011;63844;50.042;19.224;2023-09-19T07:56:47;6.50;;;4.00;;
75246;SDS011;63844;50.042;19.224;2023-09-19T07:58:23;4.70;;;3.30;;
75246;SDS011;63844;50.042;19.224;2023-09-19T08:00:00;5.10;;;3.20;;
75246;SDS011;63844;50.042;19.224;2023-09-19T08:01:36;4.80;;;2.70;;
75246;SDS011;63844;50.042;19.224;2023-09-19T08:03:13;5.00;;;3.10;;
75246;SDS011;63844;50.042;19.224;2023-09-19T08:04:51;5.80;;;3.80;;
75246;SDS011;63844;50.042;19.224;2023-09-19T08:06:28;6.00;;;3.00;;
75246;SDS011;63844;50.042;19.224;2023-09-19T08:08:06;5.50;;;2.90;;
75246;SDS011;63844;50.042;19.224;2023-09-19T08:09:43;5.40;;;3.00;;
75246;SDS011;63844;50.042;19.224;2023-09-19T08:11:24;4.50;;;3.60;;
75246;SDS011;63844;50.042;19.224;2023-09-19T08:13:01;4.20;;;3.20;;
75246;SDS011;63844;50.042;19.224;2023-09-19T08:14:38;6.20;;;3.30;;
75246;SDS011;63844;50.042;19.224;2023-09-19T08:16:17;5.50;;;2.80;;
75246;SDS011;63844;50.042;19.224;2023-09-19T08:17:55;4.40;;;3.00;;
75246;SDS011;63844;50.042;19.224;2023-09-19T08:19:32;5.30;;;3.10;;
75246;SDS011;63844;50.042;19.224;2023-09-19T08:21:08;5.00;;;2.80;;
75246;SDS011;63844;50.042;19.224;2023-09-19T08:22:48;4.40;;;2.80;;
75246;SDS011;63844;50.042;19.224;2023-09-19T08:24:25;5.50;;;3.20;;
75246;SDS011;63844;50.042;19.224;2023-09-19T08:26:04;3.80;;;2.70;;
75246;SDS011;63844;50.042;19.224;2023-09-19T08:27:47;4.60;;;2.60;;
75246;SDS011;63844;50.042;19.224;2023-09-19T08:29:25;5.00;;;3.40;;
75246;SDS011;63844;50.042;19.224;2023-09-19T08:31:04;5.40;;;2.80;;
75246;SDS011;63844;50.042;19.224;2023-09-19T08:32:41;6.30;;;3.10;;
75246;SDS011;63844;50.042;19.224;2023-09-19T08:34:18;6.20;;;3.00;;
75246;SDS011;63844;50.042;19.224;2023-09-19T08:35:55;4.10;;;3.10;;
75246;SDS011;63844;50.042;19.224;2023-09-19T08:37:32;3.60;;;2.80;;
75246;SDS011;63844;50.042;19.224;2023-09-19T08:39:08;4.40;;;3.00;;
75246;SDS011;63844;50.042;19.224;2023-09-19T08:40:44;4.10;;;2.30;;
75246;SDS011;63844;50.042;19.224;2023-09-19T08:42:21;2.90;;;2.40;;
75246;SDS011;63844;50.042;19.224;2023-09-19T08:44:00;4.80;;;2.30;;
75246;SDS011;63844;50.042;19.224;2023-09-19T08:45:38;3.00;;;2.20;;
75246;SDS011;63844;50.042;19.224;2023-09-19T08:47:15;2.70;;;2.20;;
75246;SDS011;63844;50.042;19.224;2023-09-19T08:49:05;3.50;;;2.10;;
75246;SDS011;63844;50.042;19.224;2023-09-19T08:50:49;4.60;;;2.20;;
75246;SDS011;63844;50.042;19.224;2023-09-19T08:52:32;3.20;;;1.90;;
75246;SDS011;63844;50.042;19.224;2023-09-19T08:54:26;2.90;;;2.00;;
75246;SDS011;63844;50.042;19.224;2023-09-19T08:56:11;3.20;;;2.70;;
75246;SDS011;63844;50.042;19.224;2023-09-19T08:57:49;4.50;;;2.30;;
75246;SDS011;63844;50.042;19.224;2023-09-19T08:59:26;2.90;;;2.40;;
75246;SDS011;63844;50.042;19.224;2023-09-19T09:01:02;4.40;;;2.70;;
75246;SDS011;63844;50.042;19.224;2023-09-19T09:02:43;4.50;;;3.50;;
75246;SDS011;63844;50.042;19.224;2023-09-19T09:04:20;3.70;;;2.60;;
75246;SDS011;63844;50.042;19.224;2023-09-19T09:05:58;3.10;;;2.30;;
75246;SDS011;63844;50.042;19.224;2023-09-19T09:07:36;2.70;;;2.40;;
75246;SDS011;63844;50.042;19.224;2023-09-19T09:09:16;3.70;;;2.50;;
75246;SDS011;63844;50.042;19.224;2023-09-19T09:10:53;3.90;;;2.00;;
75246;SDS011;63844;50.042;19.224;2023-09-19T09:12:30;3.40;;;2.20;;
75246;SDS011;63844;50.042;19.224;2023-09-19T09:15:39;3.40;;;2.50;;
75246;SDS011;63844;50.042;19.224;2023-09-19T09:17:17;3.80;;;2.70;;
75246;SDS011;63844;50.042;19.224;2023-09-19T09:18:56;5.10;;;2.70;;
75246;SDS011;63844;50.042;19.224;2023-09-19T09:20:32;3.40;;;2.40;;
75246;SDS011;63844;50.042;19.224;2023-09-19T09:22:10;4.40;;;2.40;;
75246;SDS011;63844;50.042;19.224;2023-09-19T09:23:48;2.70;;;2.20;;
75246;SDS011;63844;50.042;19.224;2023-09-19T09:25:46;2.50;;;2.10;;
75246;SDS011;63844;50.042;19.224;2023-09-19T09:27:23;3.50;;;2.40;;
75246;SDS011;63844;50.042;19.224;2023-09-19T09:29:00;3.00;;;2.30;;
75246;SDS011;63844;50.042;19.224;2023-09-19T09:30:37;3.00;;;2.20;;
75246;SDS011;63844;50.042;19.224;2023-09-19T09:33:55;3.40;;;2.30;;
75246;SDS011;63844;50.042;19.224;2023-09-19T09:35:31;6.40;;;2.20;;
75246;SDS011;63844;50.042;19.224;2023-09-19T09:37:12;3.00;;;2.40;;
75246;SDS011;63844;50.042;19.224;2023-09-19T09:38:51;3.60;;;1.80;;
75246;SDS011;63844;50.042;19.224;2023-09-19T09:40:43;5.30;;;2.20;;
75246;SDS011;63844;50.042;19.224;2023-09-19T09:42:36;5.10;;;2.10;;
75246;SDS011;63844;50.042;19.224;2023-09-19T09:44:15;3.00;;;1.70;;
75246;SDS011;63844;50.042;19.224;2023-09-19T09:46:10;2.70;;;2.10;;
75246;SDS011;63844;50.042;19.224;2023-09-19T09:48:07;3.80;;;1.80;;
75246;SDS011;63844;50.042;19.224;2023-09-19T09:49:50;2.60;;;1.90;;
75246;SDS011;63844;50.042;19.224;2023-09-19T09:51:30;2.80;;;2.40;;
75246;SDS011;63844;50.042;19.224;2023-09-19T09:53:40;2.50;;;1.90;;